sensor_id;sensor_type;location;lat;lon;timestamp;P1;durP1;ratioP1;P2;durP2;ratioP2
62580;SDS011;48640;48.770;9.148;2023-08-06T00:01:18;5.60;;;2.85;;
62580;SDS011;48640;48.770;9.148;2023-08-06T00:03:46;5.15;;;3.00;;
62580;SDS011;48640;48.770;9.148;2023-08-06T00:06:13;5.18;;;3.08;;
62580;SDS011;48640;48.770;9.148;2023-08-06T00:08:40;5.28;;;3.42;;
62580;SDS011;48640;48.770;9.148;2023-08-06T00:11:06;4.80;;;3.30;;
62580;SDS011;48640;48.770;9.148;2023-08-06T00:13:34;5.75;;;3.65;;
62580;SDS011;48640;48.770;9.148;2023-08-06T00:16:08;5.82;;;4.70;;
62580;SDS011;48640;48.770;9.148;2023-08-06T00:18:35;5.97;;;3.40;;
62580;SDS011;48640;48.770;9.148;2023-08-06T00:21:02;4.55;;;3.47;;
62580;SDS011;48640;48.770;9.148;2023-08-06T00:23:29;5.47;;;3.50;;
62580;SDS011;48640;48.770;9.148;2023-08-06T00:25:56;6.18;;;3.50;;
62580;SDS011;48640;48.770;9.148;2023-08-06T00:28:23;4.68;;;3.47;;
62580;SDS011;48640;48.770;9.148;2023-08-06T00:30:53;4.95;;;4.00;;
62580;SDS011;48640;48.770;9.148;2023-08-06T00:33:20;4.18;;;3.08;;
62580;SDS011;48640;48.770;9.148;2023-08-06T00:35:47;4.47;;;2.60;;
62580;SDS011;48640;48.770;9.148;2023-08-06T00:38:13;4.72;;;2.83;;
62580;SDS011;48640;48.770;9.148;2023-08-06T00:40:40;3.40;;;2.33;;
62580;SDS011;48640;48.770;9.148;2023-08-06T00:43:07;4.00;;;2.35;;
62580;SDS011;48640;48.770;9.148;2023-08-06T00:45:34;4.95;;;3.20;;
62580;SDS011;48640;48.770;9.148;2023-08-06T00:48:04;4.47;;;2.53;;
62580;SDS011;48640;48.770;9.148;2023-08-06T00:50:32;4.63;;;2.97;;
62580;SDS011;48640;48.770;9.148;2023-08-06T00:52:58;3.70;;;2.20;;
62580;SDS011;48640;48.770;9.148;2023-08-06T00:55:26;4.43;;;2.60;;
62580;SDS011;48640;48.770;9.148;2023-08-06T00:57:53;4.10;;;2.70;;
62580;SDS011;48640;48.770;9.148;2023-08-06T01:00:22;5.13;;;2.53;;
62580;SDS011;48640;48.770;9.148;2023-08-06T01:02:50;3.88;;;2.45;;
62580;SDS011;48640;48.770;9.148;2023-08-06T01:05:18;5.60;;;3.08;;
62580;SDS011;48640;48.770;9.148;2023-08-06T01:07:48;3.40;;;2.67;;
62580;SDS011;48640;48.770;9.148;2023-08-06T01:10:37;4.05;;;2.80;;
62580;SDS011;48640;48.770;9.148;2023-08-06T01:13:16;3.78;;;2.80;;
62580;SDS011;48640;48.770;9.148;2023-08-06T01:15:50;4.75;;;2.83;;
62580;SDS011;48640;48.770;9.148;2023-08-06T01:18:22;5.47;;;2.42;;
62580;SDS011;48640;48.770;9.148;2023-08-06T01:20:50;5.32;;;2.83;;
62580;SDS011;48640;48.770;9.148;2023-08-06T01:23:17;4.15;;;2.80;;
62580;SDS011;48640;48.770;9.148;2023-08-06T01:25:46;7.20;;;3.05;;
62580;SDS011;48640;48.770;9.148;2023-08-06T01:28:21;3.45;;;2.30;;
62580;SDS011;48640;48.770;9.148;2023-08-06T01:30:59;4.15;;;2.72;;
62580;SDS011;48640;48.770;9.148;2023-08-06T01:33:30;6.20;;;2.90;;
62580;SDS011;48640;48.770;9.148;2023-08-06T01:36:02;4.10;;;2.50;;
62580;SDS011;48640;48.770;9.148;2023-08-06T01:38:30;3.80;;;2.50;;
62580;SDS011;48640;48.770;9.148;2023-08-06T01:40:57;3.35;;;2.35;;
62580;SDS011;48640;48.770;9.148;2023-08-06T01:43:23;3.67;;;2.53;;
62580;SDS011;48640;48.770;9.148;2023-08-06T01:45:50;2.97;;;2.10;;
62580;SDS011;48640;48.770;9.148;2023-08-06T01:48:17;3.92;;;2.70;;
62580;SDS011;48640;48.770;9.148;2023-08-06T01:50:44;3.58;;;2.40;;
62580;SDS011;48640;48.770;9.148;2023-08-06T01:53:12;3.97;;;2.53;;
62580;SDS011;48640;48.770;9.148;2023-08-06T01:55:38;4.32;;;2.47;;
62580;SDS011;48640;48.770;9.148;2023-08-06T01:58:05;4.70;;;2.80;;
62580;SDS011;48640;48.770;9.148;2023-08-06T02:00:32;3.03;;;2.20;;
62580;SDS011;48640;48.770;9.148;2023-08-06T02:02:59;3.15;;;2.28;;
62580;SDS011;48640;48.770;9.148;2023-08-06T02:05:26;5.93;;;3.03;;
62580;SDS011;48640;48.770;9.148;2023-08-06T02:07:52;3.25;;;2.28;;
62580;SDS011;48640;48.770;9.148;2023-08-06T02:10:20;3.45;;;2.45;;
62580;SDS011;48640;48.770;9.148;2023-08-06T02:12:47;5.88;;;3.13;;
62580;SDS011;48640;48.770;9.148;2023-08-06T02:15:14;7.90;;;2.80;;
62580;SDS011;48640;48.770;9.148;2023-08-06T02:17:41;4.10;;;2.63;;
62580;SDS011;48640;48.770;9.148;2023-08-06T02:20:08;3.40;;;2.40;;
62580;SDS011;48640;48.770;9.148;2023-08-06T02:22:35;4.25;;;2.20;;
62580;SDS011;48640;48.770;9.148;2023-08-06T02:25:02;5.38;;;2.40;;
62580;SDS011;48640;48.770;9.148;2023-08-06T02:27:30;5.35;;;3.22;;
62580;SDS011;48640;48.770;9.148;2023-08-06T02:29:57;5.03;;;2.42;;
62580;SDS011;48640;48.770;9.148;2023-08-06T02:32:24;3.95;;;2.40;;
62580;SDS011;48640;48.770;9.148;2023-08-06T02:34:51;4.05;;;2.70;;
62580;SDS011;48640;48.770;9.148;2023-08-06T02:37:18;3.67;;;2.40;;
62580;SDS011;48640;48.770;9.148;2023-08-06T02:39:44;5.90;;;2.58;;
62580;SDS011;48640;48.770;9.148;2023-08-06T02:42:11;4.82;;;2.70;;
62580;SDS011;48640;48.770;9.148;2023-08-06T02:44:39;2.72;;;2.17;;
62580;SDS011;48640;48.770;9.148;2023-08-06T02:47:06;3.70;;;2.40;;
62580;SDS011;48640;48.770;9.148;2023-08-06T02:49:33;3.95;;;2.88;;
62580;SDS011;48640;48.770;9.148;2023-08-06T02:52:00;5.00;;;2.58;;
62580;SDS011;48640;48.770;9.148;2023-08-06T02:54:26;3.65;;;2.67;;
62580;SDS011;48640;48.770;9.148;2023-08-06T02:56:53;3.92;;;2.38;;
62580;SDS011;48640;48.770;9.148;2023-08-06T02:59:20;4.32;;;2.38;;
62580;SDS011;48640;48.770;9.148;2023-08-06T03:01:48;6.32;;;2.55;;
62580;SDS011;48640;48.770;9.148;2023-08-06T03:04:15;6.93;;;2.63;;
62580;SDS011;48640;48.770;9.148;2023-08-06T03:06:43;5.25;;;2.63;;
62580;SDS011;48640;48.770;9.148;2023-08-06T03:09:09;3.63;;;2.50;;
62580;SDS011;48640;48.770;9.148;2023-08-06T03:11:36;7.18;;;2.80;;
62580;SDS011;48640;48.770;9.148;2023-08-06T03:14:03;4.00;;;2.55;;
62580;SDS011;48640;48.770;9.148;2023-08-06T03:16:30;3.22;;;2.42;;
62580;SDS011;48640;48.770;9.148;2023-08-06T03:18:58;3.72;;;2.17;;
62580;SDS011;48640;48.770;9.148;2023-08-06T03:21:25;4.45;;;2.67;;
62580;SDS011;48640;48.770;9.148;2023-08-06T03:23:51;4.43;;;2.20;;
62580;SDS011;48640;48.770;9.148;2023-08-06T03:26:18;3.78;;;2.20;;
62580;SDS011;48640;48.770;9.148;2023-08-06T03:28:45;4.00;;;2.28;;
62580;SDS011;48640;48.770;9.148;2023-08-06T03:31:12;5.10;;;2.08;;
62580;SDS011;48640;48.770;9.148;2023-08-06T03:33:39;4.10;;;2.10;;
62580;SDS011;48640;48.770;9.148;2023-08-06T03:36:07;3.47;;;2.00;;
62580;SDS011;48640;48.770;9.148;2023-08-06T03:38:34;3.50;;;2.25;;
62580;SDS011;48640;48.770;9.148;2023-08-06T03:41:01;4.28;;;2.00;;
62580;SDS011;48640;48.770;9.148;2023-08-06T03:43:28;3.00;;;2.00;;
62580;SDS011;48640;48.770;9.148;2023-08-06T03:45:54;3.25;;;2.00;;
62580;SDS011;48640;48.770;9.148;2023-08-06T03:48:21;3.42;;;2.45;;
62580;SDS011;48640;48.770;9.148;2023-08-06T03:50:48;3.58;;;1.90;;
62580;SDS011;48640;48.770;9.148;2023-08-06T03:53:16;3.97;;;2.60;;
62580;SDS011;48640;48.770;9.148;2023-08-06T03:55:43;4.10;;;1.98;;
62580;SDS011;48640;48.770;9.148;2023-08-06T03:58:10;3.83;;;2.40;;
62580;SDS011;48640;48.770;9.148;2023-08-06T04:00:36;4.43;;;2.45;;
62580;SDS011;48640;48.770;9.148;2023-08-06T04:03:03;4.60;;;1.92;;
62580;SDS011;48640;48.770;9.148;2023-08-06T04:05:30;2.97;;;1.80;;
62580;SDS011;48640;48.770;9.148;2023-08-06T04:07:58;4.65;;;1.92;;
62580;SDS011;48640;48.770;9.148;2023-08-06T04:10:26;3.40;;;1.77;;
62580;SDS011;48640;48.770;9.148;2023-08-06T04:12:53;4.38;;;2.72;;
62580;SDS011;48640;48.770;9.148;2023-08-06T04:15:20;4.07;;;2.08;;
62580;SDS011;48640;48.770;9.148;2023-08-06T04:17:46;3.33;;;1.90;;
62580;SDS011;48640;48.770;9.148;2023-08-06T04:20:13;4.10;;;1.98;;
62580;SDS011;48640;48.770;9.148;2023-08-06T04:22:40;3.53;;;2.17;;
62580;SDS011;48640;48.770;9.148;2023-08-06T04:25:07;5.10;;;2.25;;
62580;SDS011;48640;48.770;9.148;2023-08-06T04:27:36;3.85;;;2.10;;
62580;SDS011;48640;48.770;9.148;2023-08-06T04:30:06;3.97;;;2.30;;
62580;SDS011;48640;48.770;9.148;2023-08-06T04:32:34;3.88;;;2.05;;
62580;SDS011;48640;48.770;9.148;2023-08-06T04:35:00;3.30;;;2.10;;
62580;SDS011;48640;48.770;9.148;2023-08-06T04:37:27;3.03;;;1.80;;
62580;SDS011;48640;48.770;9.148;2023-08-06T04:39:54;3.85;;;1.63;;
62580;SDS011;48640;48.770;9.148;2023-08-06T04:42:21;3.22;;;1.88;;
62580;SDS011;48640;48.770;9.148;2023-08-06T04:44:49;4.80;;;1.73;;
62580;SDS011;48640;48.770;9.148;2023-08-06T04:47:16;2.70;;;1.42;;
62580;SDS011;48640;48.770;9.148;2023-08-06T04:49:43;3.72;;;1.85;;
62580;SDS011;48640;48.770;9.148;2023-08-06T04:52:10;3.53;;;1.70;;
62580;SDS011;48640;48.770;9.148;2023-08-06T04:54:37;3.38;;;1.80;;
62580;SDS011;48640;48.770;9.148;2023-08-06T04:57:04;3.15;;;1.50;;
62580;SDS011;48640;48.770;9.148;2023-08-06T04:59:31;4.22;;;2.08;;
62580;SDS011;48640;48.770;9.148;2023-08-06T05:01:59;4.30;;;1.85;;
62580;SDS011;48640;48.770;9.148;2023-08-06T05:04:26;3.45;;;1.90;;
62580;SDS011;48640;48.770;9.148;2023-08-06T05:06:53;2.83;;;1.52;;
62580;SDS011;48640;48.770;9.148;2023-08-06T05:09:20;3.15;;;1.40;;
62580;SDS011;48640;48.770;9.148;2023-08-06T05:11:47;3.67;;;1.70;;
62580;SDS011;48640;48.770;9.148;2023-08-06T05:14:14;2.95;;;1.48;;
62580;SDS011;48640;48.770;9.148;2023-08-06T05:16:40;4.10;;;1.70;;
62580;SDS011;48640;48.770;9.148;2023-08-06T05:19:08;2.60;;;1.30;;
62580;SDS011;48640;48.770;9.148;2023-08-06T05:21:35;2.65;;;1.15;;
62580;SDS011;48640;48.770;9.148;2023-08-06T05:24:02;4.65;;;1.65;;
62580;SDS011;48640;48.770;9.148;2023-08-06T05:26:29;2.83;;;1.50;;
62580;SDS011;48640;48.770;9.148;2023-08-06T05:28:56;2.88;;;1.10;;
62580;SDS011;48640;48.770;9.148;2023-08-06T05:31:23;3.40;;;1.10;;
62580;SDS011;48640;48.770;9.148;2023-08-06T05:33:50;3.60;;;1.13;;
62580;SDS011;48640;48.770;9.148;2023-08-06T05:36:18;2.30;;;1.10;;
62580;SDS011;48640;48.770;9.148;2023-08-06T05:38:45;3.13;;;1.20;;
62580;SDS011;48640;48.770;9.148;2023-08-06T05:41:11;3.05;;;1.27;;
62580;SDS011;48640;48.770;9.148;2023-08-06T05:43:38;2.25;;;1.13;;
62580;SDS011;48640;48.770;9.148;2023-08-06T05:46:05;4.45;;;2.00;;
62580;SDS011;48640;48.770;9.148;2023-08-06T05:48:32;3.63;;;1.30;;
62580;SDS011;48640;48.770;9.148;2023-08-06T05:50:59;2.53;;;1.00;;
62580;SDS011;48640;48.770;9.148;2023-08-06T05:53:27;2.65;;;0.93;;
62580;SDS011;48640;48.770;9.148;2023-08-06T05:55:54;3.90;;;1.40;;
62580;SDS011;48640;48.770;9.148;2023-08-06T05:58:20;1.75;;;0.90;;
62580;SDS011;48640;48.770;9.148;2023-08-06T06:00:49;2.97;;;1.20;;
62580;SDS011;48640;48.770;9.148;2023-08-06T06:03:16;4.18;;;1.20;;
62580;SDS011;48640;48.770;9.148;2023-08-06T06:05:42;2.33;;;0.77;;
62580;SDS011;48640;48.770;9.148;2023-08-06T06:08:09;1.60;;;0.75;;
62580;SDS011;48640;48.770;9.148;2023-08-06T06:10:37;1.85;;;0.82;;
62580;SDS011;48640;48.770;9.148;2023-08-06T06:13:04;1.52;;;0.70;;
62580;SDS011;48640;48.770;9.148;2023-08-06T06:15:31;2.03;;;0.73;;
62580;SDS011;48640;48.770;9.148;2023-08-06T06:17:57;2.08;;;0.60;;
62580;SDS011;48640;48.770;9.148;2023-08-06T06:20:24;3.22;;;0.90;;
62580;SDS011;48640;48.770;9.148;2023-08-06T06:22:51;5.97;;;0.82;;
62580;SDS011;48640;48.770;9.148;2023-08-06T06:25:17;0.90;;;0.50;;
62580;SDS011;48640;48.770;9.148;2023-08-06T06:27:46;1.52;;;0.50;;
62580;SDS011;48640;48.770;9.148;2023-08-06T06:30:12;2.03;;;0.90;;
62580;SDS011;48640;48.770;9.148;2023-08-06T06:32:39;4.32;;;1.10;;
62580;SDS011;48640;48.770;9.148;2023-08-06T06:35:07;2.50;;;0.77;;
62580;SDS011;48640;48.770;9.148;2023-08-06T06:37:34;2.17;;;0.90;;
62580;SDS011;48640;48.770;9.148;2023-08-06T06:40:01;2.25;;;0.85;;
62580;SDS011;48640;48.770;9.148;2023-08-06T06:42:28;2.75;;;1.33;;
62580;SDS011;48640;48.770;9.148;2023-08-06T06:44:56;2.30;;;0.70;;
62580;SDS011;48640;48.770;9.148;2023-08-06T06:47:23;2.08;;;0.73;;
62580;SDS011;48640;48.770;9.148;2023-08-06T06:49:51;2.28;;;0.70;;
62580;SDS011;48640;48.770;9.148;2023-08-06T06:52:18;2.03;;;0.73;;
62580;SDS011;48640;48.770;9.148;2023-08-06T06:54:44;1.15;;;0.70;;
62580;SDS011;48640;48.770;9.148;2023-08-06T06:57:11;2.10;;;0.80;;
62580;SDS011;48640;48.770;9.148;2023-08-06T06:59:38;2.75;;;0.90;;
62580;SDS011;48640;48.770;9.148;2023-08-06T07:02:06;2.25;;;0.60;;
62580;SDS011;48640;48.770;9.148;2023-08-06T07:04:33;1.60;;;0.77;;
62580;SDS011;48640;48.770;9.148;2023-08-06T07:07:00;2.35;;;0.70;;
62580;SDS011;48640;48.770;9.148;2023-08-06T07:09:27;1.48;;;0.60;;
62580;SDS011;48640;48.770;9.148;2023-08-06T07:11:54;1.58;;;0.68;;
62580;SDS011;48640;48.770;9.148;2023-08-06T07:14:20;1.38;;;0.68;;
62580;SDS011;48640;48.770;9.148;2023-08-06T07:16:47;3.95;;;0.98;;
62580;SDS011;48640;48.770;9.148;2023-08-06T07:19:15;1.55;;;0.68;;
62580;SDS011;48640;48.770;9.148;2023-08-06T07:21:42;3.97;;;1.15;;
62580;SDS011;48640;48.770;9.148;2023-08-06T07:24:09;2.17;;;0.80;;
62580;SDS011;48640;48.770;9.148;2023-08-06T07:26:36;2.65;;;0.60;;
62580;SDS011;48640;48.770;9.148;2023-08-06T07:29:03;1.70;;;0.73;;
62580;SDS011;48640;48.770;9.148;2023-08-06T07:31:30;1.15;;;0.55;;
62580;SDS011;48640;48.770;9.148;2023-08-06T07:33:57;2.50;;;0.70;;
62580;SDS011;48640;48.770;9.148;2023-08-06T07:36:25;3.00;;;0.65;;
62580;SDS011;48640;48.770;9.148;2023-08-06T07:38:52;1.30;;;0.60;;
62580;SDS011;48640;48.770;9.148;2023-08-06T07:41:21;1.15;;;0.75;;
62580;SDS011;48640;48.770;9.148;2023-08-06T07:43:47;1.30;;;0.60;;
62580;SDS011;48640;48.770;9.148;2023-08-06T07:46:14;1.27;;;0.45;;
62580;SDS011;48640;48.770;9.148;2023-08-06T07:48:41;1.70;;;0.55;;
62580;SDS011;48640;48.770;9.148;2023-08-06T07:51:08;1.10;;;0.50;;
62580;SDS011;48640;48.770;9.148;2023-08-06T07:53:36;1.40;;;0.45;;
62580;SDS011;48640;48.770;9.148;2023-08-06T07:56:04;0.75;;;0.40;;
62580;SDS011;48640;48.770;9.148;2023-08-06T07:58:30;2.05;;;0.75;;
62580;SDS011;48640;48.770;9.148;2023-08-06T08:00:57;0.63;;;0.40;;
62580;SDS011;48640;48.770;9.148;2023-08-06T08:03:24;0.73;;;0.40;;
62580;SDS011;48640;48.770;9.148;2023-08-06T08:05:53;1.50;;;0.40;;
62580;SDS011;48640;48.770;9.148;2023-08-06T08:08:22;1.38;;;0.80;;
62580;SDS011;48640;48.770;9.148;2023-08-06T08:10:50;0.30;;;0.25;;
62580;SDS011;48640;48.770;9.148;2023-08-06T08:13:17;0.73;;;0.40;;
62580;SDS011;48640;48.770;9.148;2023-08-06T08:15:44;0.95;;;0.35;;
62580;SDS011;48640;48.770;9.148;2023-08-06T08:18:11;0.52;;;0.30;;
62580;SDS011;48640;48.770;9.148;2023-08-06T08:20:37;1.08;;;0.47;;
62580;SDS011;48640;48.770;9.148;2023-08-06T08:23:04;1.10;;;0.30;;
62580;SDS011;48640;48.770;9.148;2023-08-06T08:25:31;0.22;;;0.20;;
62580;SDS011;48640;48.770;9.148;2023-08-06T08:28:00;1.08;;;0.45;;
62580;SDS011;48640;48.770;9.148;2023-08-06T08:30:27;1.83;;;0.30;;
62580;SDS011;48640;48.770;9.148;2023-08-06T08:32:54;0.88;;;0.30;;
62580;SDS011;48640;48.770;9.148;2023-08-06T08:35:21;0.95;;;0.30;;
62580;SDS011;48640;48.770;9.148;2023-08-06T08:37:47;0.68;;;0.47;;
62580;SDS011;48640;48.770;9.148;2023-08-06T08:40:15;0.30;;;0.20;;
62580;SDS011;48640;48.770;9.148;2023-08-06T08:42:42;0.98;;;0.40;;
62580;SDS011;48640;48.770;9.148;2023-08-06T08:45:11;0.88;;;0.30;;
62580;SDS011;48640;48.770;9.148;2023-08-06T08:47:39;0.90;;;0.35;;
62580;SDS011;48640;48.770;9.148;2023-08-06T08:50:08;1.13;;;0.40;;
62580;SDS011;48640;48.770;9.148;2023-08-06T08:52:36;0.10;;;0.10;;
62580;SDS011;48640;48.770;9.148;2023-08-06T08:55:05;0.30;;;0.20;;
62580;SDS011;48640;48.770;9.148;2023-08-06T08:57:34;0.68;;;0.30;;
62580;SDS011;48640;48.770;9.148;2023-08-06T09:00:01;0.40;;;0.20;;
62580;SDS011;48640;48.770;9.148;2023-08-06T09:02:29;0.75;;;0.20;;
62580;SDS011;48640;48.770;9.148;2023-08-06T09:04:58;0.25;;;0.17;;
62580;SDS011;48640;48.770;9.148;2023-08-06T09:07:27;0.47;;;0.22;;
62580;SDS011;48640;48.770;9.148;2023-08-06T09:09:59;0.15;;;0.10;;
62580;SDS011;48640;48.770;9.148;2023-08-06T09:12:30;0.30;;;0.20;;
62580;SDS011;48640;48.770;9.148;2023-08-06T09:14:56;0.25;;;0.17;;
62580;SDS011;48640;48.770;9.148;2023-08-06T09:17:23;0.25;;;0.20;;
62580;SDS011;48640;48.770;9.148;2023-08-06T09:19:51;0.70;;;0.25;;
62580;SDS011;48640;48.770;9.148;2023-08-06T09:22:18;1.25;;;0.30;;
62580;SDS011;48640;48.770;9.148;2023-08-06T09:24:45;0.88;;;0.20;;
62580;SDS011;48640;48.770;9.148;2023-08-06T09:27:12;0.65;;;0.32;;
62580;SDS011;48640;48.770;9.148;2023-08-06T09:29:40;1.73;;;0.40;;
62580;SDS011;48640;48.770;9.148;2023-08-06T09:32:08;0.47;;;0.20;;
62580;SDS011;48640;48.770;9.148;2023-08-06T09:34:35;0.20;;;0.20;;
62580;SDS011;48640;48.770;9.148;2023-08-06T09:37:07;0.73;;;0.20;;
62580;SDS011;48640;48.770;9.148;2023-08-06T09:39:35;0.70;;;0.30;;
62580;SDS011;48640;48.770;9.148;2023-08-06T09:42:04;0.55;;;0.20;;
62580;SDS011;48640;48.770;9.148;2023-08-06T09:44:31;1.30;;;0.20;;
62580;SDS011;48640;48.770;9.148;2023-08-06T09:46:59;0.75;;;0.20;;
62580;SDS011;48640;48.770;9.148;2023-08-06T09:49:28;0.10;;;0.10;;
62580;SDS011;48640;48.770;9.148;2023-08-06T09:52:07;0.20;;;0.20;;
62580;SDS011;48640;48.770;9.148;2023-08-06T09:54:37;0.22;;;0.20;;
62580;SDS011;48640;48.770;9.148;2023-08-06T09:57:04;0.45;;;0.30;;
62580;SDS011;48640;48.770;9.148;2023-08-06T09:59:32;0.55;;;0.20;;
62580;SDS011;48640;48.770;9.148;2023-08-06T10:01:59;0.35;;;0.10;;
62580;SDS011;48640;48.770;9.148;2023-08-06T10:04:26;0.30;;;0.20;;
62580;SDS011;48640;48.770;9.148;2023-08-06T10:06:55;0.47;;;0.10;;
62580;SDS011;48640;48.770;9.148;2023-08-06T10:09:27;0.10;;;0.10;;
62580;SDS011;48640;48.770;9.148;2023-08-06T10:11:54;2.00;;;0.20;;
62580;SDS011;48640;48.770;9.148;2023-08-06T10:14:24;0.20;;;0.20;;
62580;SDS011;48640;48.770;9.148;2023-08-06T10:16:55;0.93;;;0.50;;
62580;SDS011;48640;48.770;9.148;2023-08-06T10:19:24;0.63;;;0.30;;
62580;SDS011;48640;48.770;9.148;2023-08-06T10:22:11;0.60;;;0.28;;
62580;SDS011;48640;48.770;9.148;2023-08-06T10:24:46;1.70;;;0.30;;
62580;SDS011;48640;48.770;9.148;2023-08-06T10:27:16;0.43;;;0.20;;
62580;SDS011;48640;48.770;9.148;2023-08-06T10:29:46;0.75;;;0.30;;
62580;SDS011;48640;48.770;9.148;2023-08-06T10:32:13;0.55;;;0.30;;
62580;SDS011;48640;48.770;9.148;2023-08-06T10:34:53;0.75;;;0.35;;
62580;SDS011;48640;48.770;9.148;2023-08-06T10:37:21;1.70;;;0.30;;
62580;SDS011;48640;48.770;9.148;2023-08-06T10:39:52;0.65;;;0.32;;
62580;SDS011;48640;48.770;9.148;2023-08-06T10:42:20;0.20;;;0.20;;
62580;SDS011;48640;48.770;9.148;2023-08-06T10:47:38;1.13;;;0.30;;
62580;SDS011;48640;48.770;9.148;2023-08-06T10:50:06;0.40;;;0.20;;
62580;SDS011;48640;48.770;9.148;2023-08-06T10:52:33;0.43;;;0.30;;
62580;SDS011;48640;48.770;9.148;2023-08-06T10:55:02;0.30;;;0.28;;
62580;SDS011;48640;48.770;9.148;2023-08-06T10:57:29;0.30;;;0.17;;
62580;SDS011;48640;48.770;9.148;2023-08-06T10:59:56;0.82;;;0.43;;
62580;SDS011;48640;48.770;9.148;2023-08-06T11:02:22;0.22;;;0.20;;
62580;SDS011;48640;48.770;9.148;2023-08-06T11:04:49;0.45;;;0.40;;
62580;SDS011;48640;48.770;9.148;2023-08-06T11:07:16;1.33;;;0.40;;
62580;SDS011;48640;48.770;9.148;2023-08-06T11:09:43;0.40;;;0.30;;
62580;SDS011;48640;48.770;9.148;2023-08-06T11:12:11;0.20;;;0.20;;
62580;SDS011;48640;48.770;9.148;2023-08-06T11:14:49;0.70;;;0.40;;
62580;SDS011;48640;48.770;9.148;2023-08-06T11:17:16;0.40;;;0.20;;
62580;SDS011;48640;48.770;9.148;2023-08-06T11:19:43;1.15;;;0.40;;
62580;SDS011;48640;48.770;9.148;2023-08-06T11:22:10;0.82;;;0.40;;
62580;SDS011;48640;48.770;9.148;2023-08-06T11:24:37;0.60;;;0.30;;
62580;SDS011;48640;48.770;9.148;2023-08-06T11:27:11;0.50;;;0.40;;
62580;SDS011;48640;48.770;9.148;2023-08-06T11:29:39;0.57;;;0.50;;
62580;SDS011;48640;48.770;9.148;2023-08-06T11:32:06;0.60;;;0.20;;
62580;SDS011;48640;48.770;9.148;2023-08-06T11:34:34;1.30;;;0.55;;
62580;SDS011;48640;48.770;9.148;2023-08-06T11:37:02;2.53;;;0.60;;
62580;SDS011;48640;48.770;9.148;2023-08-06T11:39:30;0.65;;;0.47;;
62580;SDS011;48640;48.770;9.148;2023-08-06T11:41:57;1.20;;;0.70;;
62580;SDS011;48640;48.770;9.148;2023-08-06T11:44:26;3.47;;;0.80;;
62580;SDS011;48640;48.770;9.148;2023-08-06T11:46:57;1.77;;;0.70;;
62580;SDS011;48640;48.770;9.148;2023-08-06T11:49:43;1.58;;;0.90;;
62580;SDS011;48640;48.770;9.148;2023-08-06T11:52:13;1.38;;;0.80;;
62580;SDS011;48640;48.770;9.148;2023-08-06T11:54:41;1.58;;;0.70;;
62580;SDS011;48640;48.770;9.148;2023-08-06T11:57:08;1.48;;;0.70;;
62580;SDS011;48640;48.770;9.148;2023-08-06T11:59:37;1.95;;;0.93;;
62580;SDS011;48640;48.770;9.148;2023-08-06T12:02:06;2.60;;;0.90;;
62580;SDS011;48640;48.770;9.148;2023-08-06T12:07:28;1.92;;;0.95;;
62580;SDS011;48640;48.770;9.148;2023-08-06T12:09:55;1.98;;;0.80;;
62580;SDS011;48640;48.770;9.148;2023-08-06T12:12:22;1.60;;;0.80;;
62580;SDS011;48640;48.770;9.148;2023-08-06T12:14:50;3.25;;;1.00;;
62580;SDS011;48640;48.770;9.148;2023-08-06T12:17:17;1.85;;;0.80;;
62580;SDS011;48640;48.770;9.148;2023-08-06T12:19:44;2.58;;;0.98;;
62580;SDS011;48640;48.770;9.148;2023-08-06T12:22:12;1.77;;;0.90;;
62580;SDS011;48640;48.770;9.148;2023-08-06T12:24:39;2.00;;;1.00;;
62580;SDS011;48640;48.770;9.148;2023-08-06T12:27:07;3.45;;;0.90;;
62580;SDS011;48640;48.770;9.148;2023-08-06T12:29:33;1.80;;;0.93;;
62580;SDS011;48640;48.770;9.148;2023-08-06T12:32:03;3.03;;;1.20;;
62580;SDS011;48640;48.770;9.148;2023-08-06T12:36:57;1.63;;;0.98;;
62580;SDS011;48640;48.770;9.148;2023-08-06T12:39:24;1.90;;;1.13;;
62580;SDS011;48640;48.770;9.148;2023-08-06T12:41:53;3.25;;;1.02;;
62580;SDS011;48640;48.770;9.148;2023-08-06T12:44:22;2.13;;;0.73;;
62580;SDS011;48640;48.770;9.148;2023-08-06T12:46:49;1.10;;;0.63;;
62580;SDS011;48640;48.770;9.148;2023-08-06T12:49:18;1.88;;;0.90;;
62580;SDS011;48640;48.770;9.148;2023-08-06T12:51:46;1.58;;;0.90;;
62580;SDS011;48640;48.770;9.148;2023-08-06T12:54:13;2.13;;;0.60;;
62580;SDS011;48640;48.770;9.148;2023-08-06T12:56:39;2.10;;;0.85;;
62580;SDS011;48640;48.770;9.148;2023-08-06T12:59:06;3.38;;;0.60;;
62580;SDS011;48640;48.770;9.148;2023-08-06T13:01:33;1.27;;;0.50;;
62580;SDS011;48640;48.770;9.148;2023-08-06T13:04:00;1.65;;;0.75;;
62580;SDS011;48640;48.770;9.148;2023-08-06T13:06:28;0.82;;;0.50;;
62580;SDS011;48640;48.770;9.148;2023-08-06T13:08:55;2.03;;;0.90;;
62580;SDS011;48640;48.770;9.148;2023-08-06T13:11:22;1.25;;;0.70;;
62580;SDS011;48640;48.770;9.148;2023-08-06T13:13:50;1.40;;;0.98;;
62580;SDS011;48640;48.770;9.148;2023-08-06T13:16:17;1.65;;;0.85;;
62580;SDS011;48640;48.770;9.148;2023-08-06T13:18:43;1.48;;;0.80;;
62580;SDS011;48640;48.770;9.148;2023-08-06T13:21:10;1.75;;;0.93;;
62580;SDS011;48640;48.770;9.148;2023-08-06T13:23:38;1.52;;;0.70;;
62580;SDS011;48640;48.770;9.148;2023-08-06T13:26:05;1.10;;;0.73;;
62580;SDS011;48640;48.770;9.148;2023-08-06T13:28:32;1.15;;;0.60;;
62580;SDS011;48640;48.770;9.148;2023-08-06T13:30:59;1.30;;;0.70;;
62580;SDS011;48640;48.770;9.148;2023-08-06T13:33:26;1.70;;;0.68;;
62580;SDS011;48640;48.770;9.148;2023-08-06T13:35:53;1.60;;;0.73;;
62580;SDS011;48640;48.770;9.148;2023-08-06T13:38:19;1.17;;;0.80;;
62580;SDS011;48640;48.770;9.148;2023-08-06T13:40:48;1.25;;;0.70;;
62580;SDS011;48640;48.770;9.148;2023-08-06T13:43:14;1.58;;;0.77;;
62580;SDS011;48640;48.770;9.148;2023-08-06T13:45:44;1.95;;;0.70;;
62580;SDS011;48640;48.770;9.148;2023-08-06T13:48:10;1.17;;;0.70;;
62580;SDS011;48640;48.770;9.148;2023-08-06T13:50:37;2.35;;;0.57;;
62580;SDS011;48640;48.770;9.148;2023-08-06T13:53:04;1.58;;;0.70;;
62580;SDS011;48640;48.770;9.148;2023-08-06T13:55:31;1.48;;;0.70;;
62580;SDS011;48640;48.770;9.148;2023-08-06T13:57:59;1.42;;;0.80;;
62580;SDS011;48640;48.770;9.148;2023-08-06T14:00:26;0.95;;;0.60;;
62580;SDS011;48640;48.770;9.148;2023-08-06T14:02:52;1.35;;;0.65;;
62580;SDS011;48640;48.770;9.148;2023-08-06T14:05:19;1.30;;;0.60;;
62580;SDS011;48640;48.770;9.148;2023-08-06T14:07:46;0.95;;;0.63;;
62580;SDS011;48640;48.770;9.148;2023-08-06T14:10:13;2.85;;;0.60;;
62580;SDS011;48640;48.770;9.148;2023-08-06T14:12:40;1.25;;;0.47;;
62580;SDS011;48640;48.770;9.148;2023-08-06T14:15:08;0.90;;;0.60;;
62580;SDS011;48640;48.770;9.148;2023-08-06T14:17:36;1.33;;;0.70;;
62580;SDS011;48640;48.770;9.148;2023-08-06T14:20:04;3.00;;;0.80;;
62580;SDS011;48640;48.770;9.148;2023-08-06T14:22:34;4.55;;;0.90;;
62580;SDS011;48640;48.770;9.148;2023-08-06T14:25:01;3.22;;;0.65;;
62580;SDS011;48640;48.770;9.148;2023-08-06T14:27:28;1.00;;;0.45;;
62580;SDS011;48640;48.770;9.148;2023-08-06T14:29:55;0.90;;;0.57;;
62580;SDS011;48640;48.770;9.148;2023-08-06T14:32:23;1.77;;;0.70;;
62580;SDS011;48640;48.770;9.148;2023-08-06T14:34:51;1.48;;;0.70;;
62580;SDS011;48640;48.770;9.148;2023-08-06T14:37:18;1.20;;;0.60;;
62580;SDS011;48640;48.770;9.148;2023-08-06T14:39:44;2.47;;;0.80;;
62580;SDS011;48640;48.770;9.148;2023-08-06T14:42:11;1.55;;;0.60;;
62580;SDS011;48640;48.770;9.148;2023-08-06T14:44:38;1.38;;;0.60;;
62580;SDS011;48640;48.770;9.148;2023-08-06T14:47:06;1.15;;;0.55;;
62580;SDS011;48640;48.770;9.148;2023-08-06T14:49:34;1.27;;;0.60;;
62580;SDS011;48640;48.770;9.148;2023-08-06T14:52:02;1.25;;;0.60;;
62580;SDS011;48640;48.770;9.148;2023-08-06T14:54:30;2.17;;;0.70;;
62580;SDS011;48640;48.770;9.148;2023-08-06T14:56:56;1.02;;;0.57;;
62580;SDS011;48640;48.770;9.148;2023-08-06T14:59:23;1.20;;;0.70;;